createdAt,value
2023-01-29T00:00:09.083Z,96.7
2023-01-29T00:05:25.765Z,96.7
2023-01-29T00:10:09.003Z,96.6
2023-01-29T00:15:08.957Z,96.5
2023-01-29T00:20:08.972Z,96.6
2023-01-29T00:25:09.021Z,96.5
2023-01-29T00:30:09.017Z,96.5
2023-01-29T00:35:09.053Z,96.6
2023-01-29T00:40:09.279Z,96.7
2023-01-29T00:45:08.991Z,96.8
2023-01-29T00:55:09.001Z,96.7
2023-01-29T01:00:08.957Z,96.7
2023-01-29T01:05:08.983Z,96
2023-01-29T01:10:09.032Z,95.8
2023-01-29T01:15:08.965Z,96.1
2023-01-29T01:20:08.964Z,96.1
2023-01-29T01:25:08.969Z,96.1
2023-01-29T01:30:09.039Z,96
2023-01-29T01:35:09.001Z,95.7
2023-01-29T01:45:08.962Z,96
2023-01-29T01:55:08.988Z,95.8
2023-01-29T02:00:08.972Z,96
2023-01-29T02:05:08.952Z,96.1
2023-01-29T02:10:08.956Z,95.7
2023-01-29T02:15:08.947Z,95.4
2023-01-29T02:20:08.951Z,95.4
2023-01-29T02:25:08.955Z,95.6
2023-01-29T02:30:08.950Z,95.7
2023-01-29T02:35:08.925Z,95.8
2023-01-29T02:40:09.016Z,95.6
2023-01-29T02:45:08.926Z,95.8
2023-01-29T02:50:09.045Z,95.8
2023-01-29T02:55:08.946Z,96.2
2023-01-29T03:00:08.932Z,96.5
2023-01-29T03:05:08.988Z,96.6
2023-01-29T03:10:08.945Z,96.6
2023-01-29T03:15:08.951Z,96.5
2023-01-29T03:20:08.954Z,96.7
2023-01-29T03:25:08.956Z,96.7
2023-01-29T03:30:08.958Z,96.9
2023-01-29T03:35:08.907Z,97.2
2023-01-29T03:40:08.940Z,97.5
2023-01-29T03:45:08.920Z,97.5
2023-01-29T03:50:08.940Z,97.7
2023-01-29T03:55:08.948Z,97.7
2023-01-29T04:05:08.969Z,98
2023-01-29T04:10:08.907Z,97.8
2023-01-29T04:15:08.934Z,97.7
2023-01-29T04:20:08.924Z,98
2023-01-29T04:25:08.927Z,97.7
2023-01-29T04:30:08.946Z,97.6
2023-01-29T04:35:08.910Z,97.6
2023-01-29T04:40:08.912Z,97.5
2023-01-29T04:45:08.913Z,97.5
2023-01-29T04:50:08.927Z,97.3
2023-01-29T04:55:08.907Z,97.2
2023-01-29T05:00:08.963Z,97.3
2023-01-29T05:05:08.958Z,97.6
2023-01-29T05:10:08.933Z,97.7
2023-01-29T05:15:08.912Z,97.6
2023-01-29T05:20:08.910Z,97.6
2023-01-29T05:25:08.920Z,97.6
2023-01-29T05:30:08.910Z,97.5
2023-01-29T05:35:08.899Z,97.6
2023-01-29T05:40:08.947Z,97.5
2023-01-29T05:45:08.987Z,97.5
2023-01-29T05:50:08.906Z,97.4
2023-01-29T05:55:08.913Z,97.5
2023-01-29T06:00:08.916Z,97.3
2023-01-29T06:05:08.886Z,97.2
2023-01-29T06:10:08.877Z,97.3
2023-01-29T06:15:08.936Z,95.4
2023-01-29T06:20:08.896Z,92.5
2023-01-29T06:25:08.929Z,93.4
2023-01-29T06:30:08.949Z,95.1
2023-01-29T06:35:08.876Z,95.8
2023-01-29T06:40:08.896Z,96.4
2023-01-29T06:45:08.897Z,96.8
2023-01-29T06:50:08.891Z,96.3
2023-01-29T06:55:08.913Z,96.4
2023-01-29T07:00:08.856Z,96.2
2023-01-29T07:05:08.898Z,96.2
2023-01-29T07:10:08.912Z,96.2
2023-01-29T07:15:08.879Z,95.9
2023-01-29T07:20:08.885Z,95.7
2023-01-29T07:25:08.948Z,95.5
2023-01-29T07:30:08.863Z,94.9
2023-01-29T07:35:08.848Z,94.2
2023-01-29T07:40:08.872Z,92.9
2023-01-29T07:45:08.874Z,93.6
2023-01-29T07:50:08.858Z,93.3
2023-01-29T07:55:08.866Z,93.4
2023-01-29T08:00:08.919Z,93.3
2023-01-29T08:05:09.002Z,93.3
2023-01-29T08:10:08.945Z,93.7
2023-01-29T08:15:08.871Z,93
2023-01-29T08:20:08.939Z,92.1
2023-01-29T08:25:08.948Z,92
2023-01-29T08:30:08.889Z,91.8
2023-01-29T08:35:08.854Z,91.9
2023-01-29T08:40:08.847Z,89.7
2023-01-29T08:45:08.857Z,89.6
2023-01-29T08:50:08.842Z,89.5
2023-01-29T08:55:09.017Z,88.7
2023-01-29T09:05:08.860Z,85.3
2023-01-29T09:10:08.861Z,84.5
2023-01-29T09:15:08.874Z,83.1
2023-01-29T09:20:08.816Z,85.1
2023-01-29T09:25:08.830Z,86.5
2023-01-29T09:30:08.983Z,86.8
2023-01-29T09:35:08.812Z,86.7
2023-01-29T09:40:08.835Z,85.6
2023-01-29T09:45:08.850Z,84
2023-01-29T09:50:08.827Z,82
2023-01-29T09:55:08.836Z,82.1
2023-01-29T10:00:08.821Z,81.5
2023-01-29T10:05:08.849Z,82.1
2023-01-29T10:10:08.874Z,82.2
2023-01-29T10:15:08.812Z,82.9
2023-01-29T10:20:08.825Z,82.9
2023-01-29T10:25:08.832Z,82.6
2023-01-29T10:30:08.849Z,82.6
2023-01-29T10:35:08.805Z,82.8
2023-01-29T10:40:08.860Z,82.9
2023-01-29T10:45:08.790Z,80.9
2023-01-29T10:50:08.803Z,80.3
2023-01-29T10:55:08.785Z,81.2
2023-01-29T11:00:08.829Z,81.1
2023-01-29T11:05:10.074Z,82.5
2023-01-29T11:10:08.786Z,81.8
2023-01-29T11:15:08.807Z,82.7
2023-01-29T11:20:08.807Z,81.3
2023-01-29T11:25:08.786Z,81.3
2023-01-29T11:30:08.811Z,81.7
2023-01-29T11:35:08.799Z,81.2
2023-01-29T11:40:08.809Z,81.2
2023-01-29T11:45:08.756Z,81.6
2023-01-29T11:50:08.794Z,81.7
2023-01-29T11:55:08.784Z,81.7
2023-01-29T12:00:08.824Z,81.7
2023-01-29T12:05:08.876Z,81
2023-01-29T12:10:08.809Z,82.5
2023-01-29T12:15:08.795Z,82.1
2023-01-29T12:20:08.768Z,81.5
2023-01-29T12:25:08.750Z,82.3
2023-01-29T12:30:08.792Z,82.3
2023-01-29T12:35:08.782Z,82
2023-01-29T12:40:08.734Z,82.6
2023-01-29T12:45:08.751Z,81.9
2023-01-29T12:50:08.727Z,81.6
2023-01-29T12:55:08.728Z,80.4
2023-01-29T13:00:08.774Z,80.3
2023-01-29T13:05:08.740Z,80.3
2023-01-29T13:10:08.754Z,80.5
2023-01-29T13:15:08.758Z,80.4
2023-01-29T13:20:08.741Z,80.7
2023-01-29T13:25:08.732Z,80.8
2023-01-29T13:30:08.735Z,81.3
2023-01-29T13:35:08.737Z,81.2
2023-01-29T13:40:08.760Z,81.4
2023-01-29T13:45:08.770Z,82.4
2023-01-29T13:50:08.758Z,81.8
2023-01-29T13:55:08.717Z,81
2023-01-29T14:00:08.709Z,82
2023-01-29T14:05:09.041Z,82
2023-01-29T14:10:08.683Z,81.9
2023-01-29T14:15:08.699Z,82.1
2023-01-29T14:20:08.704Z,81.5
2023-01-29T14:25:08.695Z,80.7
2023-01-29T14:30:08.678Z,81.8
2023-01-29T14:35:08.678Z,81
2023-01-29T14:40:08.693Z,80.7
2023-01-29T14:45:08.683Z,81.3
2023-01-29T14:50:08.714Z,81.9
2023-01-29T14:55:08.675Z,81.7
2023-01-29T15:00:08.685Z,82.8
2023-01-29T15:05:08.692Z,82.7
2023-01-29T15:10:21.796Z,83.7
2023-01-29T15:15:08.664Z,83.5
2023-01-29T15:20:08.690Z,85.4
2023-01-29T15:25:08.731Z,85.6
2023-01-29T15:30:08.685Z,86.3
2023-01-29T15:35:08.670Z,86
2023-01-29T15:40:08.694Z,85.6
2023-01-29T15:45:08.704Z,85.7
2023-01-29T15:50:08.642Z,86.3
2023-01-29T15:55:08.690Z,85.5
2023-01-29T16:00:08.663Z,85.7
2023-01-29T16:15:08.650Z,86.3
2023-01-29T16:20:08.655Z,86.8
2023-01-29T16:35:08.622Z,87.4
2023-01-29T16:40:08.641Z,87.8
2023-01-29T16:45:08.709Z,87.9
2023-01-29T16:50:08.656Z,89
2023-01-29T16:55:08.646Z,88.9
2023-01-29T17:00:08.649Z,88.4
2023-01-29T17:05:08.662Z,87.1
2023-01-29T17:10:08.641Z,87.5
2023-01-29T17:15:08.673Z,87.4
2023-01-29T17:20:08.653Z,87.7
2023-01-29T17:25:08.645Z,87.8
2023-01-29T17:30:08.678Z,87.9
2023-01-29T17:35:08.620Z,88.3
2023-01-29T17:40:08.659Z,88.2
2023-01-29T17:45:08.892Z,88.7
2023-01-29T17:50:08.621Z,88.7
2023-01-29T17:55:08.713Z,89.1
2023-01-29T18:00:08.626Z,89.1
2023-01-29T18:05:08.642Z,89.4
2023-01-29T18:10:08.620Z,89.5
2023-01-29T18:15:08.638Z,89.5
2023-01-29T18:20:08.593Z,89.8
2023-01-29T18:25:08.621Z,88.9
2023-01-29T18:30:08.649Z,89.5
2023-01-29T18:35:08.606Z,89.7
2023-01-29T18:40:08.614Z,89.8
2023-01-29T18:45:08.631Z,90.2
2023-01-29T18:50:08.600Z,89.7
2023-01-29T18:55:08.616Z,90.1
2023-01-29T19:00:08.611Z,89.5
2023-01-29T19:05:08.610Z,89.6
2023-01-29T19:10:08.642Z,89.5
2023-01-29T19:15:08.688Z,89.7
2023-01-29T19:20:08.614Z,89.9
2023-01-29T19:25:08.619Z,89.5
2023-01-29T19:30:08.592Z,89.3
2023-01-29T19:35:08.617Z,89.5
2023-01-29T19:40:08.593Z,89.3
2023-01-29T19:45:08.599Z,89.5
2023-01-29T19:50:08.582Z,89.4
2023-01-29T19:55:08.588Z,89.2
2023-01-29T20:00:08.574Z,89.6
2023-01-29T20:05:08.676Z,90
2023-01-29T20:10:08.580Z,90.7
2023-01-29T20:15:08.588Z,91.3
2023-01-29T20:20:08.586Z,92.1
2023-01-29T20:25:08.613Z,92.8
2023-01-29T20:30:08.615Z,93.7
2023-01-29T20:35:08.602Z,94.4
2023-01-29T20:40:08.606Z,95
2023-01-29T20:45:08.590Z,95.6
2023-01-29T20:50:08.646Z,96.1
2023-01-29T20:55:08.580Z,96.3
2023-01-29T21:00:08.603Z,96.6
2023-01-29T21:05:08.580Z,96.8
2023-01-29T21:10:08.590Z,97.4
2023-01-29T21:15:08.582Z,97.6
2023-01-29T21:20:08.555Z,97.4
2023-01-29T21:25:08.600Z,97.3
2023-01-29T21:30:08.600Z,97.6
2023-01-29T21:35:08.561Z,98.3
2023-01-29T21:40:08.565Z,98.8
2023-01-29T21:50:08.559Z,99.6
2023-01-29T21:55:08.596Z,99.8
2023-01-29T22:00:08.594Z,100
2023-01-29T22:05:18.571Z,100
2023-01-29T22:10:08.567Z,100
2023-01-29T22:15:08.562Z,100
2023-01-29T22:20:08.584Z,100
2023-01-29T22:25:08.577Z,100
2023-01-29T22:30:08.598Z,100
2023-01-29T22:35:08.696Z,100
2023-01-29T22:40:08.566Z,100
2023-01-29T22:45:08.564Z,100
2023-01-29T22:50:08.580Z,100
2023-01-29T22:55:08.601Z,100
2023-01-29T23:00:08.879Z,100
2023-01-29T23:05:08.626Z,100
2023-01-29T23:10:08.636Z,100
2023-01-29T23:15:08.554Z,100
2023-01-29T23:20:08.611Z,100
2023-01-29T23:25:08.602Z,100
2023-01-29T23:30:08.611Z,100
2023-01-29T23:35:08.564Z,100
2023-01-29T23:40:08.578Z,100
2023-01-29T23:45:08.582Z,100
2023-01-29T23:50:08.580Z,100
2023-01-29T23:55:08.637Z,100
